Time;durP1;ratioP1;P1;durP2;ratioP2;P2;SDS_P1;SDS_P2;PMS_P1;PMS_P2;Temp;Humidity;BMP_temperature;BMP_pressure;BME280_temperature;BME280_humidity;BME280_pressure;Samples;Min_cycle;Max_cycle;Signal;HPM_P1;HPM_P2
2021/07/23 00:02:23;;;;;;;20.10;13.50;;;18.10;74.60;;;;;;5055207;28;20024;-78
2021/07/23 00:04:49;;;;;;;20.20;12.60;;;17.90;75.40;;;;;;5054706;28;20081;-78
2021/07/23 00:07:15;;;;;;;18.58;12.88;;;18.00;75.30;;;;;;5055139;28;20029;-76
2021/07/23 00:09:40;;;;;;;21.48;13.38;;;18.00;75.30;;;;;;5054862;28;20442;-77
2021/07/23 00:12:06;;;;;;;22.60;13.18;;;18.00;75.20;;;;;;5055000;28;20029;-79
2021/07/23 00:14:32;;;;;;;21.80;13.32;;;17.90;75.30;;;;;;5054870;28;20017;-77
2021/07/23 00:16:57;;;;;;;21.00;13.70;;;17.90;75.40;;;;;;5054865;28;20036;-77
2021/07/23 00:19:23;;;;;;;24.90;13.27;;;17.80;75.50;;;;;;5054710;28;20021;-78
2021/07/23 00:21:48;;;;;;;17.60;12.80;;;17.80;75.50;;;;;;5054680;28;20103;-78
2021/07/23 00:24:14;;;;;;;18.58;13.10;;;17.80;75.50;;;;;;5054812;28;20060;-79
2021/07/23 00:26:40;;;;;;;18.65;12.57;;;17.90;75.60;;;;;;5054546;28;20037;-79
2021/07/23 00:29:05;;;;;;;19.77;12.55;;;17.80;75.50;;;;;;5054717;28;20029;-78
2021/07/23 00:31:31;;;;;;;19.08;13.07;;;17.70;75.70;;;;;;5054524;28;20540;-78
2021/07/23 00:33:56;;;;;;;19.08;12.85;;;17.70;75.70;;;;;;5054320;28;20029;-78
2021/07/23 00:36:22;;;;;;;23.45;14.10;;;17.70;76.00;;;;;;5054345;28;20043;-78
2021/07/23 00:38:47;;;;;;;21.63;14.48;;;17.70;75.70;;;;;;5054379;28;20024;-78
2021/07/23 00:41:13;;;;;;;22.10;13.18;;;17.60;76.10;;;;;;5054454;28;20032;-78
2021/07/23 00:43:38;;;;;;;20.15;12.95;;;17.60;76.40;;;;;;5053699;28;20495;-76
2021/07/23 00:46:04;;;;;;;22.60;12.68;;;17.60;76.20;;;;;;5054347;28;20086;-76
2021/07/23 00:48:29;;;;;;;20.08;12.43;;;17.70;76.20;;;;;;5054479;28;20024;-77
2021/07/23 00:50:55;;;;;;;20.58;13.07;;;17.70;76.20;;;;;;5054118;28;20478;-76
2021/07/23 00:53:21;;;;;;;17.13;11.88;;;17.70;75.90;;;;;;5054335;28;20025;-78
2021/07/23 00:55:54;;;;;;;19.75;11.52;;;17.70;75.60;;;;;;5053954;28;20427;-78
2021/07/23 00:58:22;;;;;;;20.30;12.35;;;17.70;75.50;;;;;;5054114;28;20100;-78
2021/07/23 01:00:48;;;;;;;17.40;11.43;;;17.70;75.30;;;;;;5054135;28;20079;-76
2021/07/23 01:03:14;;;;;;;15.15;11.05;;;17.60;75.60;;;;;;5053923;28;20469;-76
2021/07/23 01:05:39;;;;;;;17.25;11.80;;;17.60;75.70;;;;;;5053666;28;20084;-76
2021/07/23 01:08:05;;;;;;;16.40;11.68;;;17.60;75.60;;;;;;5054017;28;20429;-77
2021/07/23 01:10:32;;;;;;;15.85;11.05;;;17.60;75.80;;;;;;5053672;28;20029;-76
2021/07/23 01:12:59;;;;;;;15.35;10.90;;;17.60;75.70;;;;;;5053858;28;20018;-76
2021/07/23 01:15:24;;;;;;;19.13;12.68;;;17.60;75.60;;;;;;5053504;28;20044;-76
2021/07/23 01:17:50;;;;;;;18.25;12.20;;;17.60;75.60;;;;;;5053684;28;20025;-77
2021/07/23 01:20:27;;;;;;;19.75;12.23;;;17.50;75.90;;;;;;5053676;28;20021;-76
2021/07/23 01:22:58;;;;;;;20.67;12.10;;;17.60;75.50;;;;;;5053639;28;20025;-76
2021/07/23 01:25:24;;;;;;;19.13;12.77;;;17.60;75.60;;;;;;5053447;28;20059;-76
2021/07/23 01:27:51;;;;;;;18.35;13.02;;;17.50;75.50;;;;;;5053385;28;20533;-76
2021/07/23 01:30:20;;;;;;;27.85;14.07;;;17.40;75.50;;;;;;5053299;28;20477;-77
2021/07/23 01:32:46;;;;;;;23.42;13.50;;;17.30;75.90;;;;;;5053327;28;20488;-76
2021/07/23 01:35:12;;;;;;;20.85;13.88;;;17.30;76.20;;;;;;5053198;28;20033;-76
2021/07/23 01:37:41;;;;;;;18.20;13.00;;;17.30;76.40;;;;;;5053308;28;20100;-76
2021/07/23 01:40:08;;;;;;;20.75;13.35;;;17.20;76.60;;;;;;5053342;28;20025;-77
2021/07/23 01:42:35;;;;;;;18.90;14.77;;;17.10;76.90;;;;;;5053124;28;20027;-76
2021/07/23 01:45:02;;;;;;;22.55;13.95;;;17.20;76.90;;;;;;5035298;28;20037;-77
2021/07/23 01:47:28;;;;;;;21.13;14.13;;;17.10;77.00;;;;;;5034477;28;20025;-77
2021/07/23 01:49:53;;;;;;;23.77;13.90;;;17.20;76.50;;;;;;5052986;28;20033;-78
2021/07/23 01:52:19;;;;;;;23.05;13.88;;;17.20;76.70;;;;;;5052935;28;20017;-79
2021/07/23 01:54:45;;;;;;;21.08;14.65;;;17.20;76.60;;;;;;5052977;28;20025;-78
2021/07/23 01:57:11;;;;;;;25.88;14.80;;;17.10;76.80;;;;;;5053021;28;20040;-79
2021/07/23 01:59:36;;;;;;;24.23;14.63;;;17.10;76.70;;;;;;5052965;28;20036;-78
2021/07/23 02:02:02;;;;;;;19.92;13.88;;;17.10;76.80;;;;;;5052999;28;20025;-78
2021/07/23 02:04:27;;;;;;;21.60;14.02;;;17.00;77.00;;;;;;5052894;28;20444;-78
2021/07/23 02:06:53;;;;;;;21.85;13.63;;;17.00;77.50;;;;;;5053158;28;20022;-78
2021/07/23 02:09:19;;;;;;;18.83;13.07;;;16.90;77.30;;;;;;5053032;28;20029;-78
2021/07/23 02:11:44;;;;;;;20.48;13.98;;;16.90;77.00;;;;;;5052877;28;20032;-78
2021/07/23 02:14:12;;;;;;;22.30;13.57;;;17.00;77.80;;;;;;5059695;28;20025;-76
2021/07/23 02:16:37;;;;;;;20.20;13.02;;;17.00;76.70;;;;;;5077579;28;20057;-77
2021/07/23 02:19:03;;;;;;;19.75;12.60;;;17.00;76.60;;;;;;5066134;28;20032;-78
2021/07/23 02:21:29;;;;;;;18.20;11.20;;;16.90;77.00;;;;;;5053008;28;20025;-78
2021/07/23 02:23:55;;;;;;;27.85;14.07;;;16.90;76.90;;;;;;5055447;28;20058;-78
2021/07/23 02:26:22;;;;;;;18.98;13.80;;;17.00;76.90;;;;;;5058454;28;20025;-78
2021/07/23 02:28:49;;;;;;;20.42;12.88;;;16.90;77.00;;;;;;5057319;28;20033;-78
2021/07/23 02:31:18;;;;;;;19.60;12.73;;;16.80;77.00;;;;;;5055488;28;20036;-78
2021/07/23 02:33:44;;;;;;;21.55;13.65;;;16.70;77.20;;;;;;5035359;28;20052;-78
2021/07/23 02:36:11;;;;;;;22.48;13.68;;;16.60;77.80;;;;;;5052503;28;20090;-77
2021/07/23 02:38:36;;;;;;;27.00;14.15;;;16.50;77.90;;;;;;5052581;28;20025;-78
2021/07/23 02:41:02;;;;;;;23.15;13.70;;;16.60;77.90;;;;;;5052795;28;20028;-77
2021/07/23 02:43:28;;;;;;;17.73;12.65;;;16.50;78.10;;;;;;5052525;28;20024;-77
2021/07/23 02:45:54;;;;;;;19.98;13.35;;;16.50;78.70;;;;;;5052490;28;20021;-77
2021/07/23 02:48:20;;;;;;;18.30;14.23;;;16.50;78.60;;;;;;5052514;28;20071;-77
2021/07/23 02:50:45;;;;;;;22.45;14.32;;;16.40;78.60;;;;;;5052615;28;20040;-77
2021/07/23 02:53:11;;;;;;;20.73;13.65;;;16.30;78.90;;;;;;5052483;28;20021;-77
2021/07/23 02:55:36;;;;;;;19.35;13.18;;;16.40;79.00;;;;;;5052344;28;20040;-79
2021/07/23 02:58:03;;;;;;;19.58;12.88;;;16.40;78.90;;;;;;5054024;28;20082;-78
2021/07/23 03:00:28;;;;;;;22.30;13.00;;;16.40;78.50;;;;;;5056180;28;20025;-78
2021/07/23 03:02:54;;;;;;;17.23;12.63;;;16.40;78.50;;;;;;5056347;28;20029;-78
2021/07/23 03:05:19;;;;;;;19.42;13.20;;;16.40;78.40;;;;;;5054756;28;20052;-79
2021/07/23 03:07:45;;;;;;;23.50;13.93;;;16.50;78.50;;;;;;5056051;28;20416;-78
2021/07/23 03:10:11;;;;;;;19.17;13.13;;;16.40;78.00;;;;;;5038137;28;20028;-78
2021/07/23 03:12:37;;;;;;;23.17;13.82;;;16.50;77.70;;;;;;5056051;28;20057;-78
2021/07/23 03:15:03;;;;;;;18.65;13.00;;;16.50;77.50;;;;;;5055970;28;20036;-78
2021/07/23 03:17:29;;;;;;;21.30;13.93;;;16.40;77.50;;;;;;5055837;28;20418;-78
2021/07/23 03:19:55;;;;;;;20.67;13.52;;;16.40;77.80;;;;;;5055825;28;20075;-78
2021/07/23 03:22:20;;;;;;;22.33;13.38;;;16.30;78.20;;;;;;5056056;28;20068;-78
2021/07/23 03:24:46;;;;;;;19.38;13.68;;;16.30;78.30;;;;;;5056028;28;20029;-78
2021/07/23 03:27:12;;;;;;;18.80;13.05;;;16.30;78.50;;;;;;5055793;28;20500;-77
2021/07/23 03:29:38;;;;;;;18.27;12.73;;;16.20;78.30;;;;;;5055714;28;20021;-77
2021/07/23 03:32:04;;;;;;;19.13;13.10;;;16.30;78.30;;;;;;5055649;28;20087;-77
2021/07/23 03:34:30;;;;;;;19.52;13.02;;;16.20;78.40;;;;;;5055623;28;20112;-77
2021/07/23 03:36:56;;;;;;;19.00;12.80;;;16.20;78.50;;;;;;5055430;28;20119;-77
2021/07/23 03:39:21;;;;;;;20.63;12.43;;;16.10;78.80;;;;;;5055592;28;20028;-77
2021/07/23 03:41:47;;;;;;;21.60;13.30;;;16.10;79.30;;;;;;5037664;28;20025;-77
2021/07/23 03:44:13;;;;;;;21.52;13.68;;;16.00;79.30;;;;;;5055508;28;20132;-76
2021/07/23 03:46:38;;;;;;;21.67;13.27;;;16.00;79.50;;;;;;5055828;28;20021;-76
2021/07/23 03:49:04;;;;;;;18.08;12.25;;;15.90;79.80;;;;;;5055323;28;20032;-77
2021/07/23 03:51:29;;;;;;;19.60;13.18;;;15.90;79.90;;;;;;5055245;28;20029;-76
2021/07/23 03:53:55;;;;;;;17.52;12.68;;;15.90;79.90;;;;;;5055122;28;20461;-76
2021/07/23 03:56:20;;;;;;;18.15;12.50;;;15.90;80.00;;;;;;5054881;28;20183;-76
2021/07/23 03:58:46;;;;;;;20.33;13.27;;;16.00;79.70;;;;;;5055019;28;20078;-77
2021/07/23 04:01:11;;;;;;;20.85;12.40;;;16.00;79.60;;;;;;5055036;28;20036;-77
2021/07/23 04:03:37;;;;;;;22.27;12.05;;;16.00;79.50;;;;;;5054796;28;20029;-77
2021/07/23 04:06:03;;;;;;;18.60;11.50;;;16.00;79.40;;;;;;5037179;28;20033;-77
2021/07/23 04:08:28;;;;;;;17.90;11.68;;;16.10;79.60;;;;;;5055639;28;20063;-77
2021/07/23 04:10:56;;;;;;;18.13;12.43;;;16.10;78.90;;;;;;5055552;28;20485;-77
2021/07/23 04:13:22;;;;;;;18.05;12.10;;;16.10;78.70;;;;;;5059373;28;20017;-76
2021/07/23 04:15:48;;;;;;;17.23;12.55;;;16.00;78.60;;;;;;5056478;28;20029;-76
2021/07/23 04:18:13;;;;;;;18.73;11.55;;;15.90;79.10;;;;;;5057051;28;20029;-77
2021/07/23 04:20:39;;;;;;;18.33;12.13;;;15.80;79.60;;;;;;5060476;28;20025;-76
2021/07/23 04:23:04;;;;;;;16.30;12.65;;;15.80;79.90;;;;;;5056246;28;20032;-77
2021/07/23 04:25:30;;;;;;;18.85;12.05;;;15.90;79.70;;;;;;5059830;28;20104;-76
2021/07/23 04:27:55;;;;;;;19.23;12.20;;;15.90;79.50;;;;;;5055368;28;20029;-84
2021/07/23 04:30:21;;;;;;;19.25;12.15;;;15.90;79.40;;;;;;5059288;28;20025;-76
2021/07/23 04:32:47;;;;;;;20.98;11.57;;;15.90;79.40;;;;;;5055000;28;20502;-77
2021/07/23 04:35:13;;;;;;;16.05;12.18;;;16.00;79.20;;;;;;5054460;28;20111;-77
2021/07/23 04:37:38;;;;;;;15.23;11.18;;;16.00;79.10;;;;;;5054362;28;20056;-77
2021/07/23 04:40:08;;;;;;;15.40;10.48;;;16.00;79.20;;;;;;5054372;28;20107;-77
2021/07/23 04:42:34;;;;;;;17.42;11.65;;;16.10;79.30;;;;;;5054342;28;20025;-78
2021/07/23 04:44:59;;;;;;;22.80;13.23;;;16.20;78.90;;;;;;5054315;28;20083;-76
2021/07/23 04:47:25;;;;;;;20.92;13.43;;;16.30;78.40;;;;;;5054225;28;20079;-76
2021/07/23 04:49:51;;;;;;;18.85;13.15;;;16.30;78.40;;;;;;5054181;28;20025;-76
2021/07/23 04:52:16;;;;;;;22.17;13.80;;;16.40;78.30;;;;;;5054037;28;20035;-76
2021/07/23 04:54:42;;;;;;;20.13;13.02;;;16.50;77.90;;;;;;5053706;28;20021;-76
2021/07/23 04:57:13;;;;;;;21.73;13.73;;;16.60;77.40;;;;;;5053960;28;20075;-76
2021/07/23 04:59:39;;;;;;;21.08;14.45;;;16.60;76.70;;;;;;5053810;28;20021;-76
2021/07/23 05:02:04;;;;;;;19.58;13.30;;;16.60;76.90;;;;;;5053789;28;20048;-76
2021/07/23 05:04:31;;;;;;;20.75;14.18;;;16.70;76.80;;;;;;5053596;28;20057;-76
2021/07/23 05:06:56;;;;;;;20.52;13.48;;;16.70;76.80;;;;;;5053779;28;20021;-76
2021/07/23 05:09:22;;;;;;;23.40;14.13;;;16.70;76.80;;;;;;5053638;28;20025;-77
2021/07/23 05:11:48;;;;;;;18.42;12.23;;;16.90;76.70;;;;;;5053668;28;20029;-76
2021/07/23 05:14:15;;;;;;;19.90;13.32;;;16.90;76.50;;;;;;5053472;28;20100;-76
2021/07/23 05:16:40;;;;;;;18.80;12.25;;;17.00;76.10;;;;;;5053417;28;20037;-76
2021/07/23 05:19:06;;;;;;;23.77;14.18;;;17.10;76.20;;;;;;5053608;28;20432;-76
2021/07/23 05:21:34;;;;;;;21.55;13.40;;;17.20;75.80;;;;;;5052541;28;20048;-77
2021/07/23 05:24:03;;;;;;;20.17;13.52;;;17.20;76.20;;;;;;5053425;28;20032;-77
2021/07/23 05:26:34;;;;;;;19.67;13.55;;;17.20;75.10;;;;;;5053274;28;20029;-79
2021/07/23 05:29:00;;;;;;;21.95;13.70;;;17.30;75.30;;;;;;5053224;28;20032;-78
2021/07/23 05:31:25;;;;;;;23.92;13.25;;;17.30;75.10;;;;;;5053208;28;20139;-77
2021/07/23 05:33:51;;;;;;;20.50;12.85;;;17.30;75.10;;;;;;5052949;28;20027;-79
2021/07/23 05:36:16;;;;;;;22.25;13.65;;;17.40;74.90;;;;;;5034840;28;20094;-78
2021/07/23 05:38:42;;;;;;;18.98;13.63;;;17.50;74.80;;;;;;5053047;28;20092;-77
2021/07/23 05:41:08;;;;;;;21.33;13.25;;;17.60;74.40;;;;;;5035228;28;20044;-77
2021/07/23 05:43:34;;;;;;;17.38;12.45;;;17.70;74.30;;;;;;5053110;28;20151;-77
2021/07/23 05:46:04;;;;;;;17.27;11.95;;;17.80;74.10;;;;;;5053093;28;20480;-78
2021/07/23 05:48:30;;;;;;;16.65;12.27;;;17.90;74.00;;;;;;5051804;28;20028;-84
2021/07/23 05:50:55;;;;;;;19.92;14.13;;;18.00;73.50;;;;;;5053096;28;20433;-83
2021/07/23 05:53:21;;;;;;;21.02;13.13;;;18.20;72.80;;;;;;5052718;28;20036;-80
2021/07/23 05:55:46;;;;;;;17.60;12.27;;;18.30;72.40;;;;;;5052919;28;20037;-78
2021/07/23 05:58:12;;;;;;;21.17;13.82;;;18.40;72.00;;;;;;5055500;28;20021;-81
2021/07/23 06:00:38;;;;;;;20.48;13.75;;;18.50;71.80;;;;;;5058281;28;20103;-76
2021/07/23 06:03:04;;;;;;;18.85;12.85;;;18.60;71.50;;;;;;5054103;28;20097;-84
2021/07/23 06:05:30;;;;;;;23.27;14.93;;;18.70;71.20;;;;;;5054156;28;20068;-79
2021/07/23 06:07:55;;;;;;;22.33;13.85;;;18.80;70.40;;;;;;5054234;28;20092;-83
2021/07/23 06:10:21;;;;;;;17.60;12.65;;;18.80;70.00;;;;;;5059622;28;20025;-78
2021/07/23 06:12:46;;;;;;;19.83;13.32;;;19.00;69.90;;;;;;5069229;28;20021;-80
2021/07/23 06:15:13;;;;;;;23.67;14.45;;;19.10;69.40;;;;;;5073269;28;20067;-81
2021/07/23 06:17:39;;;;;;;17.85;11.88;;;19.20;68.20;;;;;;5075947;28;20064;-78
2021/07/23 06:20:05;;;;;;;21.58;13.50;;;19.40;68.00;;;;;;5058720;28;20020;-86
2021/07/23 06:22:31;;;;;;;20.00;13.60;;;19.50;67.50;;;;;;5054811;28;20029;-81
2021/07/23 06:24:58;;;;;;;19.92;13.77;;;19.70;66.60;;;;;;5034997;28;20036;-83
2021/07/23 06:27:24;;;;;;;18.25;12.57;;;19.70;66.30;;;;;;5053772;28;20023;-81
2021/07/23 06:29:53;;;;;;;19.55;12.52;;;19.90;66.10;;;;;;5053444;28;20179;-84
2021/07/23 06:32:20;;;;;;;15.20;11.98;;;19.90;65.60;;;;;;5052961;28;20029;-83
2021/07/23 06:34:46;;;;;;;17.27;12.95;;;20.10;65.50;;;;;;5056836;28;20028;-81
2021/07/23 06:37:11;;;;;;;18.10;12.68;;;20.10;65.60;;;;;;5057759;28;20033;-84
2021/07/23 06:39:37;;;;;;;19.85;13.15;;;20.20;65.60;;;;;;5056836;28;20107;-82
2021/07/23 06:42:02;;;;;;;18.90;12.70;;;20.30;65.80;;;;;;5056047;28;20109;-79
2021/07/23 06:44:30;;;;;;;14.65;11.13;;;20.30;65.60;;;;;;5055032;28;20469;-81
2021/07/23 06:46:55;;;;;;;20.65;12.77;;;20.50;65.30;;;;;;5056263;28;20025;-79
2021/07/23 06:49:21;;;;;;;17.65;12.88;;;20.60;64.70;;;;;;5056207;28;20444;-80
2021/07/23 06:51:46;;;;;;;20.85;13.75;;;20.60;64.30;;;;;;5056279;28;20025;-81
2021/07/23 06:54:13;;;;;;;16.50;12.90;;;20.70;64.20;;;;;;5056078;28;20532;-80
2021/07/23 06:56:39;;;;;;;19.85;13.88;;;20.80;64.00;;;;;;5055984;28;20041;-83
2021/07/23 06:59:05;;;;;;;21.52;15.00;;;21.00;63.00;;;;;;5056202;28;20104;-85
2021/07/23 07:01:30;;;;;;;18.45;12.65;;;21.00;61.80;;;;;;5056525;28;20066;-79
2021/07/23 07:03:56;;;;;;;23.45;12.95;;;20.90;64.30;;;;;;5055452;28;20438;-81
2021/07/23 07:06:21;;;;;;;17.70;11.20;;;21.20;67.10;;;;;;5055725;28;20025;-80
2021/07/23 07:08:47;;;;;;;17.92;12.45;;;21.20;63.90;;;;;;5056485;28;20051;-84
2021/07/23 07:11:12;;;;;;;21.10;14.48;;;21.30;64.30;;;;;;5055897;28;20021;-84
2021/07/23 07:13:38;;;;;;;17.98;12.57;;;21.40;62.20;;;;;;5056441;28;20037;-87
2021/07/23 07:16:04;;;;;;;20.33;12.63;;;21.50;62.90;;;;;;5055645;28;20075;-80
2021/07/23 07:18:30;;;;;;;17.58;11.88;;;21.80;63.40;;;;;;5055422;28;20021;-78
2021/07/23 07:20:55;;;;;;;15.68;10.95;;;21.90;61.50;;;;;;5037783;28;20481;-80
2021/07/23 07:23:21;;;;;;;25.10;12.65;;;22.20;60.90;;;;;;5055503;28;20029;-80
2021/07/23 07:25:46;;;;;;;20.70;12.10;;;22.40;60.50;;;;;;5057132;28;20104;-79
2021/07/23 07:28:12;;;;;;;19.30;11.68;;;22.50;59.20;;;;;;5061058;28;20024;-78
2021/07/23 07:30:37;;;;;;;35.75;14.10;;;22.50;58.80;;;;;;5055517;28;20028;-79
2021/07/23 07:33:03;;;;;;;23.98;13.07;;;22.70;58.40;;;;;;5055518;28;20469;-80
2021/07/23 07:35:29;;;;;;;19.63;11.73;;;22.40;58.40;;;;;;5055110;28;20033;-81
2021/07/23 07:37:54;;;;;;;20.10;11.35;;;22.60;58.10;;;;;;5055343;28;20108;-78
2021/07/23 07:40:20;;;;;;;18.10;11.43;;;22.80;57.40;;;;;;5037340;28;20021;-81
2021/07/23 07:42:46;;;;;;;19.67;11.63;;;22.90;56.10;;;;;;5055096;28;20028;-82
2021/07/23 07:45:11;;;;;;;20.50;11.75;;;22.90;56.60;;;;;;5054054;28;20358;-78
2021/07/23 07:47:37;;;;;;;16.88;11.95;;;23.00;55.90;;;;;;5054968;28;20021;-81
2021/07/23 07:50:04;;;;;;;22.08;12.55;;;22.90;56.30;;;;;;5055271;28;20082;-79
2021/07/23 07:52:30;;;;;;;20.80;13.00;;;22.90;56.30;;;;;;5054847;28;20025;-81
2021/07/23 07:54:55;;;;;;;16.73;11.70;;;22.70;57.10;;;;;;5054976;28;20027;-80
2021/07/23 07:57:22;;;;;;;24.52;12.60;;;22.80;56.60;;;;;;5055001;28;20139;-80
2021/07/23 07:59:48;;;;;;;15.25;12.13;;;22.80;56.70;;;;;;5054789;28;20028;-80
2021/07/23 08:02:14;;;;;;;14.02;10.80;;;22.80;56.80;;;;;;5054924;28;20389;-80
2021/07/23 08:04:40;;;;;;;16.25;11.70;;;23.00;57.10;;;;;;5054782;28;20037;-80
2021/07/23 08:07:09;;;;;;;17.70;11.18;;;23.10;56.60;;;;;;5054966;28;20040;-80
2021/07/23 08:09:50;;;;;;;17.13;11.15;;;23.00;57.30;;;;;;5054588;28;20032;-82
2021/07/23 08:12:16;;;;;;;21.67;11.48;;;23.20;56.60;;;;;;5054880;28;20021;-76
2021/07/23 08:14:42;;;;;;;17.52;11.85;;;23.20;56.30;;;;;;5054546;28;20032;-76
2021/07/23 08:17:07;;;;;;;19.58;12.20;;;23.20;56.70;;;;;;5054472;28;20129;-78
2021/07/23 08:19:35;;;;;;;15.43;11.27;;;23.40;56.40;;;;;;5054399;28;20028;-80
2021/07/23 08:22:02;;;;;;;16.25;12.00;;;23.40;56.40;;;;;;5054659;28;20039;-80
2021/07/23 08:24:27;;;;;;;16.33;10.80;;;23.40;56.60;;;;;;5054386;28;20025;-77
2021/07/23 08:26:53;;;;;;;21.00;11.48;;;23.40;57.50;;;;;;5054227;28;20083;-78
2021/07/23 08:29:19;;;;;;;18.25;11.80;;;23.50;56.90;;;;;;5054710;28;20025;-81
2021/07/23 08:31:44;;;;;;;15.57;11.48;;;23.30;57.50;;;;;;5054752;28;20025;-80
2021/07/23 08:34:10;;;;;;;13.82;10.63;;;23.20;57.60;;;;;;5055380;28;20040;-79
2021/07/23 08:36:35;;;;;;;13.18;10.15;;;23.40;58.10;;;;;;5056279;28;20373;-80
2021/07/23 08:39:01;;;;;;;15.35;11.68;;;23.60;57.20;;;;;;5063570;28;20065;-76
2021/07/23 08:41:27;;;;;;;14.73;11.88;;;23.90;57.10;;;;;;5058519;28;20033;-75
2021/07/23 08:43:52;;;;;;;19.73;11.88;;;24.00;57.40;;;;;;5068251;28;20041;-79
2021/07/23 08:46:18;;;;;;;17.77;12.10;;;23.90;56.80;;;;;;5054084;28;20035;-78
2021/07/23 08:48:43;;;;;;;16.92;11.85;;;23.90;57.30;;;;;;5054004;28;20057;-81
2021/07/23 08:51:10;;;;;;;14.50;11.18;;;23.80;57.20;;;;;;5053919;28;20098;-76
2021/07/23 08:53:36;;;;;;;14.45;10.52;;;23.90;57.70;;;;;;5053691;28;20567;-79
2021/07/23 08:56:01;;;;;;;12.55;10.30;;;23.90;57.90;;;;;;5053229;28;20033;-79
2021/07/23 08:58:28;;;;;;;17.33;11.95;;;24.10;57.40;;;;;;5053385;28;20033;-81
2021/07/23 09:00:59;;;;;;;15.82;12.07;;;24.20;56.60;;;;;;5053320;28;20025;-77
2021/07/23 09:03:27;;;;;;;16.63;11.77;;;24.20;57.00;;;;;;5053283;28;20025;-75
2021/07/23 09:05:53;;;;;;;14.93;11.07;;;24.20;55.90;;;;;;5035621;28;20029;-77
2021/07/23 09:08:20;;;;;;;18.20;12.82;;;24.30;55.90;;;;;;5053665;28;20424;-81
2021/07/23 09:10:47;;;;;;;15.13;11.88;;;24.20;55.20;;;;;;5053329;28;20029;-81
2021/07/23 09:13:23;;;;;;;17.15;11.90;;;24.20;55.70;;;;;;5053377;28;20028;-81
2021/07/23 09:15:49;;;;;;;15.35;11.13;;;24.30;54.70;;;;;;5053237;28;20056;-79
2021/07/23 09:18:35;;;;;;;15.10;11.63;;;24.60;54.10;;;;;;5053438;28;20147;-80
2021/07/23 09:21:04;;;;;;;;;;;24.90;52.00;;;;;;5053638;28;20082;-80
2021/07/23 09:23:38;;;;;;;14.50;10.88;;;25.10;51.80;;;;;;5053311;28;19905;-81
2021/07/23 09:26:10;;;;;;;16.77;10.82;;;25.10;51.70;;;;;;5053161;28;20508;-74
2021/07/23 09:28:37;;;;;;;19.05;12.43;;;25.30;50.40;;;;;;5053158;28;20025;-76
2021/07/23 09:31:07;;;;;;;14.75;11.75;;;25.30;48.50;;;;;;5053352;28;20063;-83
2021/07/23 09:33:40;;;;;;;17.25;10.95;;;24.90;49.60;;;;;;5035095;28;20021;-75
2021/07/23 09:36:10;;;;;;;13.77;10.80;;;24.80;51.10;;;;;;5052903;28;20033;-74
2021/07/23 09:38:44;;;;;;;20.83;11.38;;;24.70;50.80;;;;;;5052668;28;20021;-74
2021/07/23 09:41:24;;;;;;;12.48;9.95;;;24.70;50.10;;;;;;5053046;28;20107;-77
2021/07/23 09:44:08;;;;;;;13.57;11.25;;;24.90;50.40;;;;;;5035251;28;20373;-82
2021/07/23 09:46:39;;;;;;;16.25;11.57;;;25.20;49.80;;;;;;5035130;28;20366;-80
2021/07/23 09:49:27;;;;;;;15.45;11.55;;;25.30;48.50;;;;;;5053062;28;20032;-83
2021/07/23 09:52:02;;;;;;;14.10;10.68;;;25.30;49.10;;;;;;5053006;28;20043;-82
2021/07/23 09:54:28;;;;;;;13.80;11.27;;;25.50;49.40;;;;;;5053208;28;20105;-83
2021/07/23 09:56:54;;;;;;;19.42;11.55;;;25.70;48.10;;;;;;5034864;28;20044;-83
2021/07/23 09:59:46;;;;;;;18.75;12.57;;;25.80;48.30;;;;;;5052824;28;20021;-83
2021/07/23 10:02:21;;;;;;;18.15;12.43;;;25.50;47.90;;;;;;5077596;28;20017;-81
2021/07/23 10:05:01;;;;;;;16.65;11.60;;;25.50;49.00;;;;;;5062924;28;20131;-82
2021/07/23 10:07:33;;;;;;;12.20;10.00;;;25.50;48.30;;;;;;5052598;28;20103;-83
2021/07/23 10:09:59;;;;;;;14.55;10.63;;;25.60;49.10;;;;;;5052583;28;20047;-83
2021/07/23 10:12:27;;;;;;;18.02;11.40;;;25.90;48.10;;;;;;5051302;28;20408;-82
2021/07/23 10:14:54;;;;;;;12.95;10.40;;;25.90;46.60;;;;;;5052433;28;20473;-82
2021/07/23 10:17:20;;;;;;;15.35;11.07;;;26.00;46.90;;;;;;5052764;28;20474;-84
2021/07/23 10:19:46;;;;;;;17.95;11.80;;;26.30;46.30;;;;;;5052865;28;20027;-84
2021/07/23 10:22:13;;;;;;;15.18;10.75;;;26.50;46.20;;;;;;5034703;28;20131;-83
2021/07/23 10:24:41;;;;;;;15.50;11.00;;;26.40;45.50;;;;;;5052529;28;20048;-83
2021/07/23 10:27:08;;;;;;;17.08;11.45;;;26.60;46.60;;;;;;5052537;28;20024;-83
2021/07/23 10:29:54;;;;;;;15.32;11.02;;;26.70;45.70;;;;;;5034524;28;20081;-83
2021/07/23 10:32:35;;;;;;;17.13;12.23;;;26.80;45.70;;;;;;5052237;28;20025;-83
2021/07/23 10:35:24;;;;;;;14.70;11.77;;;27.00;45.70;;;;;;5051993;28;20068;-83
2021/07/23 10:37:54;;;;;;;14.60;11.73;;;26.70;44.90;;;;;;5052121;28;20017;-83
2021/07/23 10:40:35;;;;;;;15.10;10.75;;;26.80;46.10;;;;;;5052332;28;20037;-83
2021/07/23 10:43:00;;;;;;;15.60;10.82;;;27.00;45.90;;;;;;5052499;28;20021;-83
2021/07/23 10:45:42;;;;;;;14.25;10.63;;;27.30;44.50;;;;;;5052247;28;20021;-82
2021/07/23 10:48:08;;;;;;;14.52;10.43;;;27.60;43.30;;;;;;5034348;28;20083;-83
2021/07/23 10:50:39;;;;;;;12.57;10.20;;;27.80;42.40;;;;;;5052255;28;20026;-82
2021/07/23 10:53:26;;;;;;;15.40;11.63;;;28.00;42.60;;;;;;5052464;28;20033;-82
2021/07/23 10:55:52;;;;;;;14.75;10.40;;;27.90;42.00;;;;;;5052010;28;20036;-83
2021/07/23 10:58:29;;;;;;;13.75;10.20;;;28.00;44.50;;;;;;5052163;28;20029;-82
2021/07/23 11:01:01;;;;;;;14.88;11.10;;;28.20;42.60;;;;;;5034183;28;20071;-84
2021/07/23 11:03:42;;;;;;;14.60;9.98;;;28.50;41.60;;;;;;5052086;28;20061;-84
2021/07/23 11:06:28;;;;;;;12.65;10.38;;;28.70;40.70;;;;;;5034539;28;20035;-83
2021/07/23 11:09:04;;;;;;;17.38;10.60;;;28.70;40.10;;;;;;5052128;28;20021;-81
2021/07/23 11:11:30;;;;;;;12.52;9.98;;;29.00;39.40;;;;;;5052171;28;20040;-81
2021/07/23 11:14:11;;;;;;;14.57;10.23;;;29.20;39.40;;;;;;5052179;28;20032;-82
2021/07/23 11:16:37;;;;;;;11.35;10.15;;;29.50;39.00;;;;;;5051286;28;20029;-82
2021/07/23 11:19:02;;;;;;;13.65;10.35;;;29.70;38.10;;;;;;5053468;28;20032;-82
2021/07/23 11:21:36;;;;;;;11.63;10.43;;;29.80;37.90;;;;;;5055627;28;20078;-83
2021/07/23 11:24:09;;;;;;;13.70;9.25;;;29.90;37.50;;;;;;5055723;28;20057;-83
2021/07/23 11:26:34;;;;;;;11.57;9.88;;;30.10;38.20;;;;;;5054253;28;20025;-82
2021/07/23 11:29:00;;;;;;;13.13;10.52;;;30.20;36.40;;;;;;5055805;28;20492;-83
2021/07/23 11:31:34;;;;;;;14.77;10.02;;;30.40;36.00;;;;;;5037642;28;20021;-82
2021/07/23 11:34:21;;;;;;;15.52;10.45;;;30.30;35.00;;;;;;5037488;28;20469;-82
2021/07/23 11:36:46;;;;;;;13.98;10.48;;;30.20;35.10;;;;;;5055047;28;20099;-83
2021/07/23 11:39:12;;;;;;;18.13;10.75;;;30.20;35.20;;;;;;5055250;28;20108;-83
2021/07/23 11:42:00;;;;;;;11.77;10.40;;;30.00;35.20;;;;;;5037151;28;20025;-83
2021/07/23 11:44:25;;;;;;;14.00;10.35;;;29.70;34.60;;;;;;5037286;28;20111;-83
2021/07/23 11:46:52;;;;;;;13.13;10.70;;;29.80;35.00;;;;;;5054786;28;20475;-83
2021/07/23 11:49:17;;;;;;;12.57;10.38;;;29.70;35.60;;;;;;5055224;28;20513;-83
2021/07/23 11:51:45;;;;;;;12.75;10.60;;;29.70;35.90;;;;;;5054926;28;20056;-84
2021/07/23 11:54:11;;;;;;;12.18;10.85;;;29.70;36.20;;;;;;5055611;28;20481;-83
2021/07/23 11:56:37;;;;;;;16.10;10.35;;;29.50;36.50;;;;;;5036870;28;20045;-83
2021/07/23 11:59:04;;;;;;;13.82;11.00;;;29.50;35.80;;;;;;5036847;28;20044;-83
2021/07/23 12:01:37;;;;;;;14.40;10.25;;;29.20;36.70;;;;;;5055098;28;20041;-83
2021/07/23 12:04:03;;;;;;;13.10;10.13;;;29.50;36.10;;;;;;5054623;28;20052;-83
2021/07/23 12:06:29;;;;;;;11.90;10.07;;;29.30;35.80;;;;;;5054765;28;20021;-83
2021/07/23 12:08:56;;;;;;;13.73;11.05;;;29.70;35.70;;;;;;5054586;28;20022;-83
2021/07/23 12:11:25;;;;;;;12.85;10.57;;;29.80;34.60;;;;;;5054794;28;20021;-83
2021/07/23 12:13:51;;;;;;;16.63;11.18;;;29.50;35.40;;;;;;5036707;28;20021;-84
2021/07/23 12:16:18;;;;;;;13.80;10.07;;;29.50;35.00;;;;;;5054482;28;20029;-83
2021/07/23 12:18:58;;;;;;;12.57;9.77;;;29.60;35.50;;;;;;5036649;28;20079;-83
2021/07/23 12:21:25;;;;;;;13.60;11.10;;;29.50;35.00;;;;;;5054542;28;20017;-83
2021/07/23 12:24:03;;;;;;;13.05;10.25;;;29.80;35.00;;;;;;5054409;28;20056;-83
2021/07/23 12:26:31;;;;;;;11.18;9.48;;;30.10;34.60;;;;;;5036401;28;20029;-83
2021/07/23 12:28:57;;;;;;;12.00;9.73;;;30.60;34.80;;;;;;5036497;28;20501;-83
2021/07/23 12:31:24;;;;;;;12.68;10.90;;;30.80;33.80;;;;;;5053612;28;20498;-83